Time;durP1;ratioP1;P1;durP2;ratioP2;P2;SDS_P1;SDS_P2;PMS_P1;PMS_P2;Temp;Humidity;BMP_temperature;BMP_pressure;BME280_temperature;BME280_humidity;BME280_pressure;Samples;Min_cycle;Max_cycle;Signal;HPM_P1;HPM_P2
2022/06/11 00:01:20;;;;;;;;;;;;;;;17.62;49.50;100554.32;1751010;81;20200;-58
2022/06/11 00:04:42;;;;;;;;;;;;;;;17.57;49.61;100553.59;1769035;81;20259;-59
2022/06/11 00:07:51;;;;;;;;;;;;;;;17.57;49.75;100561.03;1769082;81;20287;-58
2022/06/11 00:10:56;;;;;;;;;;;;;;;17.54;49.80;100562.34;1769241;81;20273;-57
2022/06/11 00:14:00;;;;;;;;;;;;;;;17.48;49.78;100560.96;1769110;81;20223;-57
2022/06/11 00:17:06;;;;;;;;;;;;;;;17.44;49.92;100564.69;1769362;81;20192;-58
2022/06/11 00:20:12;;;;;;;;;;;;;;;17.45;50.04;100554.48;1769326;81;20192;-59
2022/06/11 00:23:16;;;;;;;;;;;;;;;17.42;50.07;100557.12;1768895;81;20211;-58
2022/06/11 00:26:22;;;;;;;;;;;;;;;17.41;50.18;100557.34;1769076;81;20243;-61
2022/06/11 00:29:29;;;;;;;;;;;;;;;17.39;50.20;100554.80;1769313;81;20256;-57
2022/06/11 00:32:33;;;;;;;;;;;;;;;17.35;50.21;100554.89;1769421;81;20211;-60
2022/06/11 00:35:37;;;;;;;;;;;;;;;17.30;50.23;100556.61;1769071;81;20211;-59
2022/06/11 00:38:43;;;;;;;;;;;;;;;17.29;50.35;100551.60;1760724;79;20255;-58
2022/06/11 00:41:44;;;;;;;;;;;;;;;17.28;50.49;100554.59;1759129;81;20192;-59
2022/06/11 00:44:35;;;;;;;;;;;;;;;17.28;50.52;100561.50;1759711;81;20208;-59
2022/06/11 00:47:40;;;;;;;;;;;;;;;17.21;50.47;100559.27;1759804;81;20525;-59
2022/06/11 00:50:54;;;;;;;;;;;;;;;17.12;50.50;100561.94;1759252;81;20184;-58
2022/06/11 00:54:14;;;;;;;;;;;;;;;17.07;50.65;100561.20;1758817;81;20303;-59
2022/06/11 00:57:18;;;;;;;;;;;;;;;17.05;50.80;100563.84;1759181;81;20208;-58
2022/06/11 01:00:29;;;;;;;;;;;;;;;17.02;50.87;100563.75;1760554;81;20189;-59
2022/06/11 01:03:42;;;;;;;;;;;;;;;16.98;50.88;100565.23;1759443;81;20188;-63
2022/06/11 01:06:56;;;;;;;;;;;;;;;16.95;50.91;100573.13;1760390;81;20242;-58
2022/06/11 01:10:21;;;;;;;;;;;;;;;16.91;50.94;100578.73;1759002;81;20213;-58
2022/06/11 01:13:33;;;;;;;;;;;;;;;16.84;51.01;100573.76;1759242;81;20216;-60
2022/06/11 01:16:59;;;;;;;;;;;;;;;16.83;51.20;100576.18;1727224;81;20188;-59
2022/06/11 01:20:33;;;;;;;;;;;;;;;16.82;51.34;100573.11;1759119;81;20296;-58
2022/06/11 01:24:01;;;;;;;;;;;;;;;16.81;51.44;100572.25;1759422;81;20544;-60
2022/06/11 01:27:18;;;;;;;;;;;;;;;16.75;51.46;100568.95;1759381;81;20192;-58
2022/06/11 01:30:27;;;;;;;;;;;;;;;16.67;51.51;100581.59;1758999;81;20188;-57
2022/06/11 01:33:44;;;;;;;;;;;;;;;16.63;51.65;100576.70;1759059;81;20204;-57
2022/06/11 01:36:51;;;;;;;;;;;;;;;16.56;51.70;100571.16;1759437;81;20201;-59
2022/06/11 01:40:12;;;;;;;;;;;;;;;16.47;51.77;100564.65;1764202;81;20195;-59
2022/06/11 01:43:28;;;;;;;;;;;;;;;16.40;51.88;100568.23;1766800;81;20208;-60
2022/06/11 01:46:35;;;;;;;;;;;;;;;16.42;52.05;100577.69;1766122;81;20200;-58
2022/06/11 01:49:43;;;;;;;;;;;;;;;16.41;52.16;100572.68;1766739;81;20180;-59
2022/06/11 01:53:26;;;;;;;;;;;;;;;16.36;52.06;100575.21;1766756;81;20287;-58
2022/06/11 01:56:50;;;;;;;;;;;;;;;16.26;52.13;100580.30;1766769;81;20267;-59
2022/06/11 02:00:17;;;;;;;;;;;;;;;16.16;52.26;100585.36;1766895;81;20240;-58
2022/06/11 02:03:34;;;;;;;;;;;;;;;16.12;52.38;100581.33;1766311;81;20212;-60
2022/06/11 02:06:58;;;;;;;;;;;;;;;16.13;52.57;100589.05;1766831;81;20192;-60
2022/06/11 02:10:13;;;;;;;;;;;;;;;16.17;52.73;100581.52;1766559;81;20180;-57
2022/06/11 02:13:23;;;;;;;;;;;;;;;16.25;52.82;100586.04;1745013;81;20525;-58
2022/06/11 02:16:42;;;;;;;;;;;;;;;16.27;52.83;100587.52;1766525;81;20545;-57
2022/06/11 02:19:51;;;;;;;;;;;;;;;16.31;52.88;100587.44;1766703;81;20541;-57
2022/06/11 02:22:59;;;;;;;;;;;;;;;16.31;52.85;100592.97;1766660;81;20221;-58
2022/06/11 02:26:06;;;;;;;;;;;;;;;16.34;52.95;100598.08;1766682;81;20449;-58
2022/06/11 02:29:12;;;;;;;;;;;;;;;16.39;53.01;100602.42;1766749;81;20185;-59
2022/06/11 02:32:22;;;;;;;;;;;;;;;16.42;53.03;100597.89;1742123;81;20180;-58
2022/06/11 02:35:35;;;;;;;;;;;;;;;16.49;53.05;100606.20;1766632;81;20196;-59
2022/06/11 02:38:38;;;;;;;;;;;;;;;16.54;53.09;100603.67;1767201;80;20521;-59
2022/06/11 02:41:43;;;;;;;;;;;;;;;16.58;53.09;100602.21;1749865;81;20271;-60
2022/06/11 02:44:49;;;;;;;;;;;;;;;16.64;53.10;100600.50;1764318;81;20220;-60
2022/06/11 02:47:56;;;;;;;;;;;;;;;16.66;53.03;100601.16;1764347;81;20216;-60
2022/06/11 02:51:01;;;;;;;;;;;;;;;16.68;53.07;100597.66;1764304;81;20589;-58
2022/06/11 02:54:06;;;;;;;;;;;;;;;16.72;53.16;100597.55;1764305;81;20544;-59
2022/06/11 02:57:14;;;;;;;;;;;;;;;16.80;53.24;100600.11;1764381;81;20255;-59
2022/06/11 03:00:23;;;;;;;;;;;;;;;16.83;53.21;100602.45;1791222;79;20208;-58
2022/06/11 03:03:27;;;;;;;;;;;;;;;16.86;53.22;100600.13;1804744;79;20239;-59
2022/06/11 03:06:32;;;;;;;;;;;;;;;16.96;53.31;100598.32;1804939;79;20219;-58
2022/06/11 03:09:39;;;;;;;;;;;;;;;17.07;53.37;100588.00;1804896;79;20243;-58
2022/06/11 03:12:44;;;;;;;;;;;;;;;17.17;53.37;100596.73;1804576;79;20235;-60
2022/06/11 03:15:49;;;;;;;;;;;;;;;17.28;53.39;100587.23;1804898;79;20220;-60
2022/06/11 03:18:54;;;;;;;;;;;;;;;17.39;53.36;100592.16;1805013;79;20212;-58
2022/06/11 03:22:00;;;;;;;;;;;;;;;17.49;53.35;100599.50;1804709;79;20208;-59
2022/06/11 03:25:08;;;;;;;;;;;;;;;17.60;53.36;100594.69;1784901;79;20183;-59
2022/06/11 03:28:16;;;;;;;;;;;;;;;17.72;53.39;100594.36;1772499;81;20211;-57
2022/06/11 03:31:20;;;;;;;;;;;;;;;17.83;53.32;100596.98;1773014;81;20258;-59
2022/06/11 03:34:25;;;;;;;;;;;;;;;17.92;53.34;100591.51;1773037;81;20651;-58
2022/06/11 03:37:30;;;;;;;;;;;;;;;18.03;53.35;100593.59;1772983;81;20242;-59
2022/06/11 03:40:36;;;;;;;;;;;;;;;18.18;53.35;100591.95;1774269;80;20214;-58
2022/06/11 03:43:40;;;;;;;;;;;;;;;18.29;53.31;100594.03;1773490;81;20211;-60
2022/06/11 03:46:48;;;;;;;;;;;;;;;18.39;53.30;100594.45;1772895;81;20523;-58
2022/06/11 03:49:56;;;;;;;;;;;;;;;18.52;53.31;100603.52;1771735;81;20293;-59
2022/06/11 03:53:01;;;;;;;;;;;;;;;18.65;53.29;100600.69;1773432;81;20617;-58
2022/06/11 03:56:07;;;;;;;;;;;;;;;18.78;53.28;100603.37;1773410;81;20520;-57
2022/06/11 03:59:11;;;;;;;;;;;;;;;18.92;53.26;100612.45;1773418;81;20190;-60
2022/06/11 04:02:17;;;;;;;;;;;;;;;19.03;53.19;100607.03;1773530;81;20317;-60
2022/06/11 04:05:21;;;;;;;;;;;;;;;19.16;53.15;100613.02;1773458;81;20515;-59
2022/06/11 04:08:27;;;;;;;;;;;;;;;19.28;53.13;100608.48;1773585;81;20571;-59
2022/06/11 04:11:33;;;;;;;;;;;;;;;19.40;53.11;100605.79;1773395;81;20191;-57
2022/06/11 04:14:37;;;;;;;;;;;;;;;19.53;53.13;100600.98;1773428;81;20231;-58
2022/06/11 04:17:44;;;;;;;;;;;;;;;19.65;53.11;100609.39;1773424;81;20203;-60
2022/06/11 04:20:53;;;;;;;;;;;;;;;19.80;53.12;100608.50;1772891;81;20222;-57
2022/06/11 04:23:59;;;;;;;;;;;;;;;19.93;53.11;100602.80;1772867;81;20207;-59
2022/06/11 04:27:06;;;;;;;;;;;;;;;20.07;53.11;100606.59;1773417;81;20220;-59
2022/06/11 04:30:12;;;;;;;;;;;;;;;20.21;53.09;100608.16;1773470;81;20194;-58
2022/06/11 04:33:16;;;;;;;;;;;;;;;20.35;53.10;100611.59;1773458;81;20219;-59
2022/06/11 04:36:24;;;;;;;;;;;;;;;20.49;53.06;100614.52;1773461;81;20325;-59
2022/06/11 04:39:31;;;;;;;;;;;;;;;20.61;53.02;100616.83;1773226;81;20231;-58
2022/06/11 04:42:38;;;;;;;;;;;;;;;20.74;53.01;100617.47;1765103;80;20626;-59
2022/06/11 04:45:43;;;;;;;;;;;;;;;20.86;53.00;100611.09;1765288;80;20207;-59
2022/06/11 04:48:48;;;;;;;;;;;;;;;20.98;52.98;100610.08;1765222;81;20219;-58
2022/06/11 04:51:54;;;;;;;;;;;;;;;21.14;52.92;100612.17;1765249;81;20642;-58
2022/06/11 04:55:03;;;;;;;;;;;;;;;21.27;52.88;100611.11;1765355;81;20187;-58
2022/06/11 04:58:08;;;;;;;;;;;;;;;21.41;52.82;100615.36;1765542;81;20646;-57
2022/06/11 05:01:15;;;;;;;;;;;;;;;21.53;52.76;100618.45;1765688;81;20262;-58
2022/06/11 05:04:21;;;;;;;;;;;;;;;21.67;52.68;100624.66;1768044;80;20565;-58
2022/06/11 05:07:27;;;;;;;;;;;;;;;21.78;52.60;100623.84;1765616;81;20583;-58
2022/06/11 05:10:38;;;;;;;;;;;;;;;21.88;52.56;100617.95;1747465;81;20223;-57
2022/06/11 05:13:40;;;;;;;;;;;;;;;22.00;52.47;100617.41;1764710;81;20215;-58
2022/06/11 05:16:48;;;;;;;;;;;;;;;22.11;52.38;100619.87;1765773;80;20207;-58
2022/06/11 05:19:53;;;;;;;;;;;;;;;22.23;52.33;100622.93;1765241;80;20503;-57
2022/06/11 05:22:57;;;;;;;;;;;;;;;22.37;52.28;100628.25;1765151;80;20539;-58
2022/06/11 05:26:02;;;;;;;;;;;;;;;22.50;52.19;100627.97;1765046;81;20559;-58
2022/06/11 05:29:08;;;;;;;;;;;;;;;22.63;52.17;100624.36;1771998;79;20551;-60
2022/06/11 05:32:14;;;;;;;;;;;;;;;22.76;52.13;100625.47;1765076;81;20280;-62
2022/06/11 05:35:24;;;;;;;;;;;;;;;22.90;52.02;100633.84;1764756;81;20207;-61
2022/06/11 05:38:31;;;;;;;;;;;;;;;23.04;51.99;100633.00;1765957;81;20207;-59
2022/06/11 05:41:36;;;;;;;;;;;;;;;23.16;51.89;100627.64;1765175;81;20242;-61
2022/06/11 05:44:42;;;;;;;;;;;;;;;23.31;51.78;100629.33;1765739;81;20235;-61
2022/06/11 05:47:48;;;;;;;;;;;;;;;23.42;51.65;100630.37;1765486;81;20203;-61
2022/06/11 05:50:54;;;;;;;;;;;;;;;23.53;51.54;100631.66;1765559;81;20263;-61
2022/06/11 05:54:01;;;;;;;;;;;;;;;23.64;51.45;100630.72;1786611;80;20204;-61
2022/06/11 05:57:08;;;;;;;;;;;;;;;23.79;51.37;100630.13;1791031;80;20232;-60
2022/06/11 06:00:15;;;;;;;;;;;;;;;23.94;51.26;100640.70;1747422;81;20852;-62
2022/06/11 06:03:22;;;;;;;;;;;;;;;24.06;51.15;100631.13;1758253;81;20243;-60
2022/06/11 06:06:27;;;;;;;;;;;;;;;24.18;50.95;100631.84;1795926;80;20216;-62
2022/06/11 06:09:34;;;;;;;;;;;;;;;24.30;50.71;100629.80;1796439;80;20276;-62
2022/06/11 06:12:41;;;;;;;;;;;;;;;24.41;50.56;100623.77;1796080;80;20276;-60
2022/06/11 06:15:46;;;;;;;;;;;;;;;24.56;50.47;100624.80;1795977;80;20209;-63
2022/06/11 06:18:52;;;;;;;;;;;;;;;24.71;50.32;100625.57;1795802;80;20569;-59
2022/06/11 06:22:01;;;;;;;;;;;;;;;24.81;50.11;100627.95;1795832;80;20216;-61
2022/06/11 06:25:06;;;;;;;;;;;;;;;24.91;49.88;100630.02;1796065;80;20308;-63
2022/06/11 06:28:11;;;;;;;;;;;;;;;25.01;49.71;100628.16;1795810;80;20221;-62
2022/06/11 06:31:17;;;;;;;;;;;;;;;25.14;49.63;100614.28;1796311;80;20232;-62
2022/06/11 06:34:24;;;;;;;;;;;;;;;25.29;49.51;100627.02;1796191;80;20236;-61
2022/06/11 06:37:32;;;;;;;;;;;;;;;25.44;49.40;100626.35;1777558;80;20262;-62
2022/06/11 06:40:37;;;;;;;;;;;;;;;25.57;49.21;100623.11;1764974;81;20607;-62
2022/06/11 06:43:45;;;;;;;;;;;;;;;25.67;48.99;100626.00;1764696;80;20191;-62
2022/06/11 06:46:51;;;;;;;;;;;;;;;25.76;48.90;100620.17;1765393;81;20270;-62
2022/06/11 06:49:57;;;;;;;;;;;;;;;25.85;48.73;100621.34;1765321;81;20623;-59
2022/06/11 06:52:56;;;;;;;;;;;;;;;25.96;48.61;100623.11;1765478;81;20601;-60
2022/06/11 06:56:01;;;;;;;;;;;;;;;26.04;48.48;100626.84;1773017;80;20550;-60
2022/06/11 06:59:12;;;;;;;;;;;;;;;26.12;48.30;100630.54;1766716;81;20322;-60
2022/06/11 07:02:18;;;;;;;;;;;;;;;26.21;48.19;100638.76;1767226;80;20227;-62
2022/06/11 07:05:25;;;;;;;;;;;;;;;26.33;48.11;100635.16;1764519;80;20218;-61
2022/06/11 07:08:29;;;;;;;;;;;;;;;26.43;48.04;100636.63;1765393;81;20199;-61
2022/06/11 07:11:36;;;;;;;;;;;;;;;26.54;47.86;100633.30;1765302;81;20239;-61
2022/06/11 07:14:43;;;;;;;;;;;;;;;26.62;47.68;100639.79;1765277;80;20552;-61
2022/06/11 07:17:52;;;;;;;;;;;;;;;26.70;47.53;100636.48;1765857;81;20539;-62
2022/06/11 07:20:57;;;;;;;;;;;;;;;26.79;47.37;100637.08;1764917;80;20271;-61
2022/06/11 07:24:07;;;;;;;;;;;;;;;26.92;47.23;100638.52;1765560;80;20231;-62
2022/06/11 07:27:16;;;;;;;;;;;;;;;27.01;47.04;100641.92;1764810;81;20203;-61
2022/06/11 07:30:25;;;;;;;;;;;;;;;27.11;46.80;100641.10;1765067;80;20254;-61
2022/06/11 07:33:32;;;;;;;;;;;;;;;27.19;46.62;100637.74;1773236;80;20320;-62
2022/06/11 07:36:40;;;;;;;;;;;;;;;27.29;46.41;100633.59;1765226;81;20246;-61
2022/06/11 07:39:44;;;;;;;;;;;;;;;27.37;46.17;100628.23;1765917;81;20223;-60
2022/06/11 07:42:50;;;;;;;;;;;;;;;27.45;46.02;100629.08;1770383;79;20183;-61
2022/06/11 07:45:54;;;;;;;;;;;;;;;27.55;45.78;100623.47;1763843;80;20662;-61
2022/06/11 07:49:03;;;;;;;;;;;;;;;27.66;45.56;100622.89;1764478;81;20245;-61
2022/06/11 07:52:12;;;;;;;;;;;;;;;27.73;45.32;100621.47;1765534;80;20214;-60
2022/06/11 07:55:18;;;;;;;;;;;;;;;27.81;45.10;100615.28;1763235;81;20603;-61
2022/06/11 07:58:23;;;;;;;;;;;;;;;27.93;45.01;100611.34;1764058;81;20259;-61
2022/06/11 08:01:28;;;;;;;;;;;;;;;28.02;44.80;100614.70;1764197;81;20215;-63
2022/06/11 08:04:34;;;;;;;;;;;;;;;28.10;44.62;100609.08;1764499;81;20211;-61
2022/06/11 08:07:38;;;;;;;;;;;;;;;28.16;44.39;100608.79;1764541;81;20559;-62
2022/06/11 08:10:44;;;;;;;;;;;;;;;28.23;44.23;100614.09;1765269;81;20208;-61
2022/06/11 08:13:52;;;;;;;;;;;;;;;28.33;44.03;100614.07;1765230;81;20192;-61
2022/06/11 08:16:58;;;;;;;;;;;;;;;28.39;43.72;100613.77;1775831;80;20245;-61
2022/06/11 08:20:07;;;;;;;;;;;;;;;28.45;43.34;100613.17;1769862;81;20209;-61
2022/06/11 08:23:12;;;;;;;;;;;;;;;28.54;43.22;100604.45;1787895;79;20298;-60
2022/06/11 08:26:18;;;;;;;;;;;;;;;28.65;42.95;100603.27;1782909;79;20314;-61
2022/06/11 08:29:21;;;;;;;;;;;;;;;28.72;42.65;100606.05;1777689;80;20198;-61
2022/06/11 08:32:28;;;;;;;;;;;;;;;28.78;42.33;100602.06;1776355;80;20271;-61
2022/06/11 08:35:35;;;;;;;;;;;;;;;28.85;41.99;100605.97;1781731;80;20656;-62
2022/06/11 08:38:42;;;;;;;;;;;;;;;28.89;41.56;100601.45;1779613;80;20302;-62
2022/06/11 08:41:48;;;;;;;;;;;;;;;28.91;41.36;100597.20;1779736;80;20278;-62
2022/06/11 08:44:54;;;;;;;;;;;;;;;28.98;41.19;100594.06;1782734;80;20270;-61
2022/06/11 08:48:02;;;;;;;;;;;;;;;29.02;40.85;100592.33;1742294;81;20238;-63
2022/06/11 08:51:46;;;;;;;;;;;;;;;29.07;40.62;100589.52;1743604;81;20234;-62
2022/06/11 08:54:55;;;;;;;;;;;;;;;29.14;40.47;100585.22;1735073;82;20242;-62
2022/06/11 08:58:11;;;;;;;;;;;;;;;29.25;40.23;100574.72;1726537;82;20253;-62
2022/06/11 09:01:39;;;;;;;;;;;;;;;29.32;40.01;100575.22;1743531;81;20594;-61
2022/06/11 09:04:52;;;;;;;;;;;;;;;29.45;39.82;100585.84;1742375;81;20268;-63
2022/06/11 09:08:07;;;;;;;;;;;;;;;29.56;39.53;100584.61;1744418;81;20220;-63
2022/06/11 09:11:19;;;;;;;;;;;;;;;29.64;39.28;100574.12;1741230;81;20220;-62
2022/06/11 09:14:29;;;;;;;;;;;;;;;29.72;39.03;100569.81;1744251;81;20208;-62
2022/06/11 09:17:54;;;;;;;;;;;;;;;29.77;38.73;100569.20;1756158;81;20208;-62
2022/06/11 09:21:15;;;;;;;;;;;;;;;29.88;38.58;100560.90;1757880;80;20204;-63
2022/06/11 09:24:50;;;;;;;;;;;;;;;30.00;38.31;100557.67;1758832;80;20200;-60
2022/06/11 09:28:05;;;;;;;;;;;;;;;30.11;38.04;100560.06;1758867;81;20220;-62
2022/06/11 09:31:19;;;;;;;;;;;;;;;30.25;37.79;100560.23;1759387;80;20180;-62
2022/06/11 09:34:43;;;;;;;;;;;;;;;30.37;37.61;100557.80;1759291;80;20212;-62
2022/06/11 09:38:14;;;;;;;;;;;;;;;30.46;37.41;100558.25;1758452;81;20212;-62
2022/06/11 09:41:33;;;;;;;;;;;;;;;30.53;37.11;100557.31;1759082;81;20247;-62
2022/06/11 09:44:44;;;;;;;;;;;;;;;30.60;36.76;100555.53;1740849;81;20210;-62
2022/06/11 09:48:18;;;;;;;;;;;;;;;30.62;36.53;100556.91;1762451;79;20210;-63
2022/06/11 09:51:36;;;;;;;;;;;;;;;30.68;36.35;100555.68;1749706;81;20274;-64
2022/06/11 09:54:55;;;;;;;;;;;;;;;30.75;36.20;100554.48;1772455;81;20590;-64
2022/06/11 09:58:05;;;;;;;;;;;;;;;30.84;36.06;100554.09;1773395;81;20234;-62
2022/06/11 10:01:15;;;;;;;;;;;;;;;30.96;35.89;100555.31;1779286;79;20231;-62
2022/06/11 10:04:22;;;;;;;;;;;;;;;31.04;35.68;100559.44;1772592;81;20553;-62
2022/06/11 10:07:31;;;;;;;;;;;;;;;31.11;35.49;100552.83;1786670;79;20250;-63
2022/06/11 10:10:39;;;;;;;;;;;;;;;31.20;35.30;100547.58;1771990;81;20613;-63
2022/06/11 10:13:47;;;;;;;;;;;;;;;31.26;35.11;100555.39;1772620;81;20566;-62
2022/06/11 10:16:53;;;;;;;;;;;;;;;31.24;34.81;100550.05;1772909;81;20337;-61
2022/06/11 10:20:10;;;;;;;;;;;;;;;31.25;34.64;100549.48;1772583;81;20266;-62
2022/06/11 10:23:25;;;;;;;;;;;;;;;31.21;34.33;100545.00;1773141;81;20203;-62
2022/06/11 10:26:35;;;;;;;;;;;;;;;31.27;34.27;100552.85;1773148;81;20554;-63
2022/06/11 10:29:49;;;;;;;;;;;;;;;31.42;34.14;100547.80;1772636;81;20222;-60
2022/06/11 10:32:53;;;;;;;;;;;;;;;31.56;34.00;100546.41;1772249;81;20207;-61
2022/06/11 10:36:05;;;;;;;;;;;;;;;31.68;33.75;100546.18;1771930;81;20263;-63
2022/06/11 10:39:19;;;;;;;;;;;;;;;31.74;33.56;100549.77;1773402;79;20238;-61
2022/06/11 10:42:46;;;;;;;;;;;;;;;31.83;33.46;100542.23;1772877;81;20606;-64
2022/06/11 10:45:53;;;;;;;;;;;;;;;31.89;33.24;100540.44;1703567;84;20229;-62
2022/06/11 10:48:59;;;;;;;;;;;;;;;31.96;33.03;100545.13;1736394;80;20508;-62
2022/06/11 10:52:15;;;;;;;;;;;;;;;32.06;32.90;100544.09;1769647;80;20230;-63
2022/06/11 10:55:27;;;;;;;;;;;;;;;32.13;32.67;100540.24;1770068;80;20242;-61
2022/06/11 10:58:50;;;;;;;;;;;;;;;32.18;32.45;100536.46;1770522;81;20218;-61
2022/06/11 11:02:06;;;;;;;;;;;;;;;32.16;32.20;100528.28;1771044;81;20266;-61
2022/06/11 11:08:31;;;;;;;;;;;;;;;32.19;32.12;100530.48;1732422;82;20249;-59
2022/06/11 11:11:39;;;;;;;;;;;;;;;32.29;31.93;100524.61;1703463;84;20210;-60
2022/06/11 11:14:46;;;;;;;;;;;;;;;32.41;31.83;100533.47;1703501;84;20312;-59
2022/06/11 11:17:55;;;;;;;;;;;;;;;32.53;31.70;100528.09;1704088;84;20257;-59
2022/06/11 11:21:04;;;;;;;;;;;;;;;32.60;31.44;100527.05;1704154;84;20280;-59
2022/06/11 11:24:13;;;;;;;;;;;;;;;32.65;31.17;100528.97;1703568;84;20208;-59
2022/06/11 11:27:30;;;;;;;;;;;;;;;32.72;30.97;100523.11;1693448;83;20219;-60
2022/06/11 11:30:44;;;;;;;;;;;;;;;32.67;30.54;100520.39;1674850;86;20219;-59
2022/06/11 11:33:51;;;;;;;;;;;;;;;32.58;30.29;100515.78;1674792;86;20250;-60
2022/06/11 11:37:07;;;;;;;;;;;;;;;32.52;30.06;100511.39;1650264;86;20243;-59
2022/06/11 11:40:15;;;;;;;;;;;;;;;32.48;29.82;100506.08;1675362;86;20571;-59
2022/06/11 11:43:23;;;;;;;;;;;;;;;32.43;29.71;100507.03;1667785;86;20276;-58
2022/06/11 11:46:30;;;;;;;;;;;;;;;32.49;29.68;100508.59;1675685;86;20235;-59
2022/06/11 11:49:38;;;;;;;;;;;;;;;32.56;29.55;100508.17;1675672;86;20203;-59
2022/06/11 11:52:48;;;;;;;;;;;;;;;32.62;29.42;100507.73;1675461;86;20210;-58
2022/06/11 11:56:02;;;;;;;;;;;;;;;32.66;29.38;100498.87;1675856;86;20247;-60
2022/06/11 11:59:11;;;;;;;;;;;;;;;32.69;29.32;100501.06;1675613;86;20251;-58
2022/06/11 12:02:38;;;;;;;;;;;;;;;32.69;29.19;100493.97;1675395;86;20219;-59
2022/06/11 12:05:48;;;;;;;;;;;;;;;32.69;29.11;100495.96;1694884;84;20253;-60
2022/06/11 12:08:55;;;;;;;;;;;;;;;32.67;29.00;100494.86;1727892;83;20250;-60
2022/06/11 12:12:21;;;;;;;;;;;;;;;32.69;28.92;100496.81;1732981;83;20263;-60
2022/06/11 12:15:33;;;;;;;;;;;;;;;32.70;28.74;100486.28;1733557;83;20219;-59
2022/06/11 12:18:54;;;;;;;;;;;;;;;32.64;28.51;100486.15;1714034;83;20530;-60
2022/06/11 12:22:22;;;;;;;;;;;;;;;32.57;28.33;100485.77;1733025;83;20250;-59
2022/06/11 12:25:29;;;;;;;;;;;;;;;32.46;28.13;100484.32;1732624;83;20853;-59
2022/06/11 12:28:36;;;;;;;;;;;;;;;32.32;27.96;100480.05;1731838;83;20242;-58
2022/06/11 12:31:43;;;;;;;;;;;;;;;32.25;27.84;100474.55;1732611;83;20214;-58
2022/06/11 12:34:47;;;;;;;;;;;;;;;32.21;27.77;100470.08;1732606;83;20578;-59
2022/06/11 12:37:57;;;;;;;;;;;;;;;32.17;27.58;100465.38;1732795;82;20202;-58
2022/06/11 12:41:12;;;;;;;;;;;;;;;32.15;27.61;100465.69;1733205;83;20218;-59
2022/06/11 12:44:40;;;;;;;;;;;;;;;32.18;27.55;100466.47;1733310;83;20551;-59
2022/06/11 12:47:52;;;;;;;;;;;;;;;32.17;27.46;100453.47;1733003;83;20527;-60
2022/06/11 12:51:10;;;;;;;;;;;;;;;32.18;27.44;100452.88;1728834;83;20187;-58
2022/06/11 12:54:25;;;;;;;;;;;;;;;32.20;27.45;100451.41;1697979;84;20257;-58
2022/06/11 12:57:48;;;;;;;;;;;;;;;32.22;27.36;100453.36;1702506;84;20308;-59
2022/06/11 13:01:12;;;;;;;;;;;;;;;32.20;27.33;100456.23;1702750;84;20205;-60
2022/06/11 13:04:37;;;;;;;;;;;;;;;32.20;27.22;100449.15;1678947;84;20189;-58
2022/06/11 13:08:07;;;;;;;;;;;;;;;32.18;27.14;100434.45;1702368;84;20252;-59
2022/06/11 13:11:36;;;;;;;;;;;;;;;32.17;27.04;100435.62;1760651;81;20200;-59
2022/06/11 13:15:08;;;;;;;;;;;;;;;32.18;27.00;100426.80;1761003;81;20208;-58
2022/06/11 13:18:52;;;;;;;;;;;;;;;32.21;26.90;100433.25;1760835;81;20295;-60
2022/06/11 13:22:03;;;;;;;;;;;;;;;32.20;26.77;100424.50;1760187;81;20220;-59
2022/06/11 13:25:33;;;;;;;;;;;;;;;32.17;26.71;100419.47;1721966;81;20233;-59
2022/06/11 13:28:53;;;;;;;;;;;;;;;32.16;26.64;100419.78;1699464;84;20574;-60
2022/06/11 13:32:01;;;;;;;;;;;;;;;32.15;26.56;100416.67;1699897;84;20193;-58
2022/06/11 13:35:32;;;;;;;;;;;;;;;32.17;26.44;100424.28;1700251;84;20189;-58
2022/06/11 13:39:01;;;;;;;;;;;;;;;32.09;26.26;100417.38;1699930;84;20605;-57
2022/06/11 13:42:27;;;;;;;;;;;;;;;32.06;26.24;100411.50;1699026;84;20220;-58
2022/06/11 13:46:05;;;;;;;;;;;;;;;32.06;26.17;100416.59;1699784;84;20268;-58
2022/06/11 13:49:26;;;;;;;;;;;;;;;31.99;26.14;100414.76;1699476;84;20610;-58
2022/06/11 13:56:03;;;;;;;;;;;;;;;32.06;25.99;100396.77;1699235;84;20280;-58
2022/06/11 13:59:22;;;;;;;;;;;;;;;32.08;26.00;100401.52;1699307;84;20371;-58
2022/06/11 14:02:42;;;;;;;;;;;;;;;32.15;26.06;100404.77;1699671;84;20217;-58
2022/06/11 14:05:50;;;;;;;;;;;;;;;32.19;25.95;100393.64;1700189;84;20261;-58
2022/06/11 14:10:20;;;;;;;;;;;;;;;32.16;25.87;100392.87;1698480;84;20300;-57
2022/06/11 14:12:49;;;;;;;;;;;;;;;32.17;25.95;100386.88;1699896;84;20205;-57
2022/06/11 14:15:57;;;;;;;;;;;;;;;32.17;26.01;100385.47;1699565;84;20579;-57
2022/06/11 14:19:04;;;;;;;;;;;;;;;32.20;26.02;100376.32;1699482;84;20628;-58
2022/06/11 14:22:11;;;;;;;;;;;;;;;32.20;25.93;100374.05;1699688;84;20237;-58
2022/06/11 14:25:20;;;;;;;;;;;;;;;32.22;25.86;100375.44;1700181;84;20529;-58
2022/06/11 14:28:30;;;;;;;;;;;;;;;32.27;25.90;100363.13;1739832;81;20217;-58
2022/06/11 14:31:35;;;;;;;;;;;;;;;32.28;25.89;100361.97;1721008;81;20264;-57
2022/06/11 14:34:41;;;;;;;;;;;;;;;32.30;25.83;100363.91;1697480;82;20250;-57
2022/06/11 14:37:44;;;;;;;;;;;;;;;32.32;25.83;100358.17;1683788;84;20239;-58
2022/06/11 14:40:53;;;;;;;;;;;;;;;32.34;25.73;100360.11;1672107;84;20444;-58
2022/06/11 14:44:04;;;;;;;;;;;;;;;32.31;25.59;100352.25;1739146;81;20198;-58
2022/06/11 14:47:11;;;;;;;;;;;;;;;32.25;25.58;100348.44;1738876;82;20245;-58
2022/06/11 14:50:41;;;;;;;;;;;;;;;32.27;25.50;100351.20;1739130;82;20563;-58
2022/06/11 14:53:54;;;;;;;;;;;;;;;32.32;25.43;100341.77;1739381;82;20595;-58
2022/06/11 14:57:05;;;;;;;;;;;;;;;32.39;25.39;100340.19;1739125;82;20604;-58
2022/06/11 15:00:44;;;;;;;;;;;;;;;32.37;25.33;100341.64;1739430;82;20601;-58
2022/06/11 15:04:07;;;;;;;;;;;;;;;32.32;25.32;100344.00;1739614;82;20202;-59
2022/06/11 15:07:15;;;;;;;;;;;;;;;32.38;25.39;100339.09;1739341;82;20594;-57
2022/06/11 15:10:27;;;;;;;;;;;;;;;32.40;25.38;100338.17;1737213;82;20206;-58
2022/06/11 15:14:07;;;;;;;;;;;;;;;32.36;25.46;100340.80;1738642;82;20218;-58
2022/06/11 15:17:40;;;;;;;;;;;;;;;32.36;25.54;100335.13;1735849;82;20254;-58
2022/06/11 15:20:47;;;;;;;;;;;;;;;32.36;25.57;100336.55;1735877;82;20277;-57
2022/06/11 15:23:53;;;;;;;;;;;;;;;32.39;25.55;100337.34;1736152;82;20222;-57
2022/06/11 15:27:07;;;;;;;;;;;;;;;32.43;25.56;100335.53;1737005;82;20559;-58
2022/06/11 15:30:28;;;;;;;;;;;;;;;32.43;25.48;100336.95;1737142;82;20282;-57
2022/06/11 15:33:38;;;;;;;;;;;;;;;32.51;25.44;100330.52;1737356;82;20187;-58
2022/06/11 15:36:49;;;;;;;;;;;;;;;32.53;25.43;100334.44;1737617;82;20229;-58
2022/06/11 15:40:06;;;;;;;;;;;;;;;32.50;25.47;100339.34;1737677;82;20186;-58
2022/06/11 15:43:12;;;;;;;;;;;;;;;32.69;25.39;100333.75;1737862;82;20194;-58
2022/06/11 15:46:41;;;;;;;;;;;;;;;32.84;25.42;100334.75;1737429;82;20557;-58
2022/06/11 15:49:50;;;;;;;;;;;;;;;33.02;25.37;100336.57;1737304;82;20293;-57
2022/06/11 15:53:02;;;;;;;;;;;;;;;32.98;25.40;100338.36;1731803;82;20214;-58
2022/06/11 15:56:14;;;;;;;;;;;;;;;33.02;25.47;100342.24;1733965;82;20273;-57
2022/06/11 15:59:24;;;;;;;;;;;;;;;33.11;25.33;100343.72;1734970;82;20234;-58
2022/06/11 16:02:30;;;;;;;;;;;;;;;33.02;25.38;100340.83;1733860;82;20211;-58
2022/06/11 16:05:38;;;;;;;;;;;;;;;33.14;25.41;100345.30;1734741;82;20212;-57
2022/06/11 16:08:54;;;;;;;;;;;;;;;33.14;25.36;100343.88;1724267;81;20226;-57
2022/06/11 16:11:58;;;;;;;;;;;;;;;32.99;25.32;100346.30;1709694;83;20210;-57
2022/06/11 16:15:06;;;;;;;;;;;;;;;32.79;25.34;100343.38;1713385;84;20294;-57
2022/06/11 16:18:31;;;;;;;;;;;;;;;32.66;25.35;100344.89;1712671;84;20246;-57
2022/06/11 16:21:35;;;;;;;;;;;;;;;32.65;25.33;100346.06;1712559;83;20214;-57
2022/06/11 16:24:48;;;;;;;;;;;;;;;32.81;25.21;100343.09;1713435;84;20528;-58
2022/06/11 16:27:53;;;;;;;;;;;;;;;33.43;25.03;100339.73;1712793;84;20194;-58